Time;durP1;ratioP1;P1;durP2;ratioP2;P2;SDS_P1;SDS_P2;PMS_P1;PMS_P2;Temp;Humidity;BMP_temperature;BMP_pressure;BME280_temperature;BME280_humidity;BME280_pressure;Samples;Min_cycle;Max_cycle;Signal;HPM_P1;HPM_P2
2021/07/17 06:11:26;;;;;;;12.21;8.43;;;;;;;27.18;54.43;99618.30;370834;142;879449;-62
2021/07/17 06:12:28;;;;;;;12.09;8.37;;;;;;;27.14;54.44;99624.02;365142;147;858921;-61
2021/07/17 06:13:30;;;;;;;12.46;8.81;;;;;;;27.18;53.21;99620.95;344050;147;865028;-62
2021/07/17 06:14:31;;;;;;;12.22;8.27;;;;;;;27.21;55.15;99626.02;343123;155;857229;-64
2021/07/17 06:15:33;;;;;;;15.46;8.24;;;;;;;27.29;53.36;99627.19;345517;154;856318;-63
2021/07/17 06:16:36;;;;;;;11.11;8.22;;;;;;;27.38;53.02;99624.62;345150;154;865114;-63
2021/07/17 06:17:37;;;;;;;12.21;8.46;;;;;;;27.49;52.82;99626.38;343553;153;858633;-62
2021/07/17 06:18:39;;;;;;;10.21;7.71;;;;;;;27.61;51.87;99619.20;342563;154;866631;-63
2021/07/17 06:19:41;;;;;;;10.40;7.95;;;;;;;27.74;51.44;99620.81;342961;154;866500;-64
2021/07/17 06:20:45;;;;;;;9.73;8.19;;;;;;;27.84;51.08;99632.34;343493;154;866567;-64
2021/07/17 06:21:46;;;;;;;13.68;8.24;;;;;;;27.93;51.13;99626.23;343204;154;857393;-63
2021/07/17 06:22:49;;;;;;;10.85;8.48;;;;;;;28.02;50.98;99626.41;343012;157;865028;-64
2021/07/17 06:23:50;;;;;;;11.05;8.22;;;;;;;28.07;51.26;99630.37;342661;154;863929;-64
2021/07/17 06:24:52;;;;;;;12.24;8.14;;;;;;;28.11;50.57;99625.63;344677;155;858081;-64
2021/07/17 06:25:54;;;;;;;14.20;8.12;;;;;;;28.13;48.62;99626.34;346775;154;865564;-64
2021/07/17 06:26:56;;;;;;;12.67;8.18;;;;;;;28.18;49.15;99626.81;348859;154;865609;-64
2021/07/17 06:27:58;;;;;;;10.46;7.96;;;;;;;28.24;48.55;99628.94;348961;152;863735;-64
2021/07/17 06:29:00;;;;;;;12.35;8.19;;;;;;;28.33;48.46;99629.11;352119;151;866577;-64
2021/07/17 06:30:02;;;;;;;11.75;7.99;;;;;;;28.43;48.47;99624.65;352681;152;865557;-64
2021/07/17 06:31:04;;;;;;;12.07;8.37;;;;;;;28.48;49.22;99625.09;347263;152;865372;-63
2021/07/17 06:32:06;;;;;;;15.06;9.28;;;;;;;28.54;49.26;99627.20;348704;152;857662;-63
2021/07/17 06:33:08;;;;;;;13.97;8.54;;;;;;;28.61;49.15;99619.48;349206;154;865216;-64
2021/07/17 06:34:09;;;;;;;13.21;8.54;;;;;;;28.69;48.33;99619.67;348649;152;858321;-64
2021/07/17 06:35:12;;;;;;;10.99;8.51;;;;;;;28.80;48.54;99623.23;348109;152;865879;-63
2021/07/17 06:36:16;;;;;;;16.54;8.24;;;;;;;28.94;48.49;99627.28;349096;154;866660;-63
2021/07/17 06:37:18;;;;;;;13.29;9.28;;;;;;;29.07;49.12;99619.03;348984;154;857493;-64
2021/07/17 06:38:19;;;;;;;10.47;7.99;;;;;;;29.21;50.23;99618.60;348738;152;859118;-64
2021/07/17 06:39:21;;;;;;;14.78;8.26;;;;;;;29.32;48.72;99614.96;347540;153;865098;-64
2021/07/17 06:40:23;;;;;;;13.55;8.54;;;;;;;29.44;49.54;99618.33;347574;154;866336;-64
2021/07/17 06:41:25;;;;;;;11.51;8.51;;;;;;;29.52;48.24;99621.12;348395;153;859780;-64
2021/07/17 06:42:27;;;;;;;11.66;7.94;;;;;;;29.48;47.96;99619.72;348350;152;865268;-64
2021/07/17 06:43:29;;;;;;;13.39;8.50;;;;;;;29.51;47.96;99618.61;349075;154;865296;-63
2021/07/17 06:44:31;;;;;;;13.36;8.05;;;;;;;29.58;47.94;99611.72;348154;151;865998;-63
2021/07/17 06:45:33;;;;;;;12.38;8.30;;;;;;;29.67;47.69;99613.52;349108;152;857527;-63
2021/07/17 06:46:36;;;;;;;12.64;8.58;;;;;;;29.80;47.05;99623.03;349468;152;867020;-64
2021/07/17 06:47:38;;;;;;;10.44;8.09;;;;;;;29.94;49.71;99609.22;349060;154;865288;-64
2021/07/17 06:48:40;;;;;;;13.38;8.23;;;;;;;30.08;49.23;99613.28;349229;152;866009;-64
2021/07/17 06:49:42;;;;;;;11.38;8.59;;;;;;;30.17;46.23;99617.73;349977;152;859540;-64
2021/07/17 06:50:44;;;;;;;12.85;8.29;;;;;;;30.01;45.83;99618.35;348972;154;866740;-63
2021/07/17 06:51:46;;;;;;;9.51;7.70;;;;;;;29.98;45.36;99612.45;349260;151;861742;-63
2021/07/17 06:52:48;;;;;;;14.34;7.80;;;;;;;29.83;45.39;99607.59;345990;153;866954;-64
2021/07/17 06:53:50;;;;;;;11.77;8.60;;;;;;;29.82;45.55;99605.91;345756;154;864970;-63
2021/07/17 06:54:52;;;;;;;11.26;8.24;;;;;;;29.75;46.41;99607.47;349174;152;857494;-63
2021/07/17 06:55:53;;;;;;;9.34;7.71;;;;;;;29.81;46.33;99612.23;348740;152;865759;-63
2021/07/17 06:56:56;;;;;;;9.68;7.53;;;;;;;29.87;45.67;99611.64;343221;157;864998;-64
2021/07/17 06:57:58;;;;;;;13.39;8.03;;;;;;;29.90;46.63;99604.33;345753;154;858472;-64
2021/07/17 06:59:00;;;;;;;10.20;8.01;;;;;;;29.88;45.35;99613.33;348569;153;866800;-63
2021/07/17 07:00:05;;;;;;;11.68;7.73;;;;;;;29.93;45.57;99610.20;350935;151;866082;-63
2021/07/17 07:01:09;;;;;;;11.57;7.88;;;;;;;29.91;45.08;99609.52;349464;152;866707;-63
2021/07/17 07:02:11;;;;;;;10.31;7.79;;;;;;;29.99;45.10;99608.80;347795;153;858097;-62
2021/07/17 07:03:13;;;;;;;12.16;8.49;;;;;;;30.09;46.19;99606.09;349546;152;857560;-62
2021/07/17 07:04:15;;;;;;;11.94;8.35;;;;;;;30.15;45.39;99606.36;352702;151;858286;-62
2021/07/17 07:05:16;;;;;;;11.57;7.76;;;;;;;30.22;45.13;99601.28;350812;151;866724;-61
2021/07/17 07:06:19;;;;;;;10.11;7.40;;;;;;;30.31;45.29;99602.20;349216;151;866871;-61
2021/07/17 07:07:21;;;;;;;9.43;7.38;;;;;;;30.39;44.48;99610.31;348061;152;865043;-61
2021/07/17 07:08:23;;;;;;;9.33;7.25;;;;;;;30.50;44.19;99603.94;349581;151;865115;-61
2021/07/17 07:09:25;;;;;;;16.31;7.48;;;;;;;30.62;44.09;99609.09;348265;151;865487;-61
2021/07/17 07:10:28;;;;;;;9.97;6.93;;;;;;;30.68;42.64;99605.81;348478;151;858974;-61
2021/07/17 07:11:29;;;;;;;10.60;7.24;;;;;;;;;;347210;151;860627;-63
2021/07/17 07:12:31;;;;;;;7.63;6.62;;;;;;;;;;343468;154;857594;-61
2021/07/17 07:13:33;;;;;;;11.02;6.45;;;;;;;;;;343393;153;860249;-61
2021/07/17 07:14:35;;;;;;;12.61;6.11;;;;;;;;;;341034;157;857375;-62
2021/07/17 07:15:37;;;;;;;7.07;6.34;;;;;;;;;;342750;155;857570;-61
2021/07/17 07:16:40;;;;;;;7.84;6.31;;;;;;;;;;342682;154;866179;-63
2021/07/17 07:17:41;;;;;;;9.14;6.34;;;;;;;;;;344513;154;857536;-63
2021/07/17 07:18:43;;;;;;;11.48;6.29;;;;;;;;;;341714;155;858029;-62
2021/07/17 07:19:44;;;;;;;7.49;5.72;;;;;;;;;;343196;153;859627;-63
2021/07/17 07:20:47;;;;;;;8.89;5.93;;;;;;;;;;343262;154;859075;-62
2021/07/17 07:21:49;;;;;;;7.57;5.76;;;;;;;;;;346197;154;859361;-62
2021/07/17 07:22:51;;;;;;;6.71;5.96;;;;;;;;;;344906;154;857515;-62
2021/07/17 07:23:52;;;;;;;9.04;5.84;;;;;;;;;;342877;154;857487;-63
2021/07/17 07:24:54;;;;;;;7.66;6.07;;;;;;;;;;343408;154;857499;-62
2021/07/17 07:25:55;;;;;;;8.74;5.78;;;;;;;;;;341931;155;857340;-62
2021/07/17 07:26:57;;;;;;;10.71;6.23;;;;;;;;;;344114;154;859192;-61
2021/07/17 07:27:59;;;;;;;9.73;5.78;;;;;;;;;;342808;154;865253;-62
2021/07/17 07:29:00;;;;;;;10.51;6.06;;;;;;;;;;343197;156;857732;-61
2021/07/17 07:30:03;;;;;;;14.17;6.59;;;;;;;;;;343428;154;859339;-61
2021/07/17 07:31:05;;;;;;;10.95;6.11;;;;;;;;;;343028;154;859708;-61
2021/07/17 07:32:06;;;;;;;13.09;5.96;;;;;;;;;;344134;156;857545;-61
2021/07/17 07:33:08;;;;;;;9.86;6.29;;;;;;;;;;340283;156;857588;-61
2021/07/17 07:34:09;;;;;;;10.34;6.75;;;;;;;;;;342314;154;859317;-61
2021/07/17 07:35:11;;;;;;;10.45;6.45;;;;;;;;;;341400;154;859115;-62
2021/07/17 07:36:14;;;;;;;9.40;6.20;;;;;;;;;;340024;156;859532;-61
2021/07/17 07:37:15;;;;;;;9.81;6.25;;;;;;;;;;342518;155;866247;-61
2021/07/17 07:38:17;;;;;;;8.09;6.64;;;;;;;;;;343072;154;858816;-61
2021/07/17 07:39:18;;;;;;;9.29;6.43;;;;;;;;;;342507;156;857833;-62
2021/07/17 07:40:21;;;;;;;14.56;7.12;;;;;;;;;;340976;155;857468;-61
2021/07/17 07:41:22;;;;;;;11.26;6.59;;;;;;;;;;342661;155;860227;-61
2021/07/17 07:42:24;;;;;;;9.75;6.96;;;;;;;;;;343573;156;857574;-61
2021/07/17 07:43:25;;;;;;;8.89;6.70;;;;;;;;;;343764;156;858783;-60
2021/07/17 07:44:28;;;;;;;8.72;6.36;;;;;;;;;;342902;154;857466;-61
2021/07/17 07:45:30;;;;;;;9.83;7.53;;;;;;;;;;342222;154;858501;-62
2021/07/17 07:46:34;;;;;;;7.88;6.87;;;;;;;;;;338752;155;859341;-62
2021/07/17 07:47:37;;;;;;;8.33;6.85;;;;;;;;;;341680;154;857696;-60
2021/07/17 07:48:41;;;;;;;12.31;6.63;;;;;;;;;;337157;157;865053;-60
2021/07/17 07:49:43;;;;;;;7.99;6.47;;;;;;;;;;338027;157;857534;-61
2021/07/17 07:50:45;;;;;;;9.70;6.78;;;;;;;;;;342705;155;859074;-61
2021/07/17 07:51:47;;;;;;;9.11;6.59;;;;;;;;;;342921;155;865719;-61
2021/07/17 07:52:50;;;;;;;12.20;7.17;;;;;;;;;;342206;154;858021;-61
2021/07/17 07:53:51;;;;;;;13.63;6.49;;;;;;;;;;341645;154;857560;-61
2021/07/17 07:54:53;;;;;;;9.91;6.50;;;;;;;;;;343255;154;857557;-61
2021/07/17 07:55:55;;;;;;;10.74;6.81;;;;;;;;;;343187;155;857416;-60
2021/07/17 07:56:56;;;;;;;10.40;6.15;;;;;;;;;;339696;155;865048;-61
2021/07/17 07:57:58;;;;;;;8.09;6.24;;;;;;;;;;344380;154;865527;-62
2021/07/17 07:59:00;;;;;;;10.02;6.97;;;;;;;;;;342912;154;861542;-62
2021/07/17 08:00:02;;;;;;;10.81;6.33;;;;;;;;;;341618;155;857627;-60
2021/07/17 08:01:03;;;;;;;8.41;6.55;;;;;;;;;;342183;156;865109;-61
2021/07/17 08:02:05;;;;;;;8.14;6.54;;;;;;;;;;343096;154;857731;-61
2021/07/17 08:03:07;;;;;;;10.99;6.61;;;;;;;;;;342231;155;860605;-61
2021/07/17 08:04:09;;;;;;;11.60;5.97;;;;;;;;;;343119;155;858116;-60
2021/07/17 08:05:11;;;;;;;10.01;6.29;;;;;;;;;;342465;154;858476;-62
2021/07/17 08:06:15;;;;;;;10.14;5.89;;;;;;;;;;343077;154;866792;-60
2021/07/17 08:07:17;;;;;;;11.98;6.53;;;;;;;;;;341452;155;859118;-61
2021/07/17 08:08:18;;;;;;;11.08;6.56;;;;;;;;;;343725;154;859293;-62
2021/07/17 08:09:20;;;;;;;11.04;5.88;;;;;;;;;;343136;154;860100;-61
2021/07/17 08:10:23;;;;;;;7.87;5.84;;;;;;;;;;343593;154;858761;-60
2021/07/17 08:11:25;;;;;;;9.30;6.24;;;;;;;;;;343190;156;857513;-61
2021/07/17 08:12:27;;;;;;;7.46;5.86;;;;;;;;;;346798;152;865117;-60
2021/07/17 08:13:28;;;;;;;12.39;5.87;;;;;;;;;;349735;152;857823;-60
2021/07/17 08:14:30;;;;;;;7.07;5.51;;;;;;;;;;350190;151;857688;-61
2021/07/17 08:15:32;;;;;;;12.45;6.29;;;;;;;;;;348947;151;857565;-61
2021/07/17 08:16:33;;;;;;;12.06;5.34;;;;;;;;;;349529;151;865192;-62
2021/07/17 08:17:35;;;;;;;15.81;6.05;;;;;;;;;;349074;152;857460;-62
2021/07/17 08:18:37;;;;;;;16.92;6.34;;;;;;;;;;349284;151;859045;-62
2021/07/17 08:19:38;;;;;;;12.60;5.96;;;;;;;;;;349201;151;858277;-63
2021/07/17 08:20:41;;;;;;;10.59;5.72;;;;;;;;;;348445;151;860616;-61
2021/07/17 08:21:43;;;;;;;10.55;6.51;;;;;;;;;;347954;151;859295;-62
2021/07/17 08:22:44;;;;;;;7.02;5.61;;;;;;;;;;348487;153;858199;-62
2021/07/17 08:23:46;;;;;;;9.35;6.13;;;;;;;;;;349070;151;865337;-61
2021/07/17 08:24:48;;;;;;;9.11;5.97;;;;;;;;;;348735;151;857525;-62
2021/07/17 08:25:50;;;;;;;8.91;5.83;;;;;;;;;;349487;151;857495;-62
2021/07/17 08:26:52;;;;;;;12.11;6.25;;;;;;;;;;349691;151;857546;-62
2021/07/17 08:27:53;;;;;;;7.67;6.06;;;;;;;;;;350073;152;863459;-61
2021/07/17 08:28:55;;;;;;;8.47;6.15;;;;;;;;;;349774;151;858820;-62
2021/07/17 08:29:57;;;;;;;8.89;6.14;;;;;;;;;;348560;153;859856;-61
2021/07/17 08:31:00;;;;;;;8.35;5.92;;;;;;;;;;347902;152;867057;-62
2021/07/17 08:32:02;;;;;;;10.57;6.28;;;;;;;;;;348558;152;866000;-62
2021/07/17 08:33:04;;;;;;;10.24;6.62;;;;;;;;;;350238;153;860148;-61
2021/07/17 08:34:05;;;;;;;9.72;6.73;;;;;;;;;;347124;151;857676;-62
2021/07/17 08:35:08;;;;;;;9.56;6.24;;;;;;;;;;348599;154;857528;-61
2021/07/17 08:36:09;;;;;;;9.75;5.91;;;;;;;;;;348343;151;857486;-62
2021/07/17 08:37:11;;;;;;;9.39;6.71;;;;;;;;;;349032;151;860292;-62
2021/07/17 08:38:13;;;;;;;10.87;5.74;;;;;;;;;;349129;151;857421;-62
2021/07/17 08:39:14;;;;;;;6.85;6.14;;;;;;;;;;349519;151;857436;-62
2021/07/17 08:40:17;;;;;;;8.99;6.35;;;;;;;;;;348092;153;857529;-60
2021/07/17 08:41:20;;;;;;;12.35;6.32;;;;;;;;;;348629;152;856627;-63
2021/07/17 08:42:25;;;;;;;10.48;5.47;;;;;;;;;;348980;152;856446;-62
2021/07/17 08:43:25;;;;;;;7.09;6.29;;;;;;;;;;349886;151;856556;-61
2021/07/17 08:44:27;;;;;;;9.54;5.97;;;;;;;;;;350185;152;857032;-61
2021/07/17 08:47:29;;;;;;;10.06;5.86;;;;;;;34.44;31.88;99585.07;370812;142;882175;-62
2021/07/17 08:48:27;;;;;;;8.09;5.74;;;;;;;34.30;32.23;99582.13;364173;144;859052;-61
2021/07/17 08:49:28;;;;;;;6.84;6.04;;;;;;;34.21;32.58;99588.56;363823;145;864993;-61
2021/07/17 08:50:30;;;;;;;6.31;5.46;;;;;;;;;;363935;144;865999;-61
2021/07/17 08:51:32;;;;;;;9.70;6.31;;;;;;;;;;361883;144;857521;-63
2021/07/17 08:52:34;;;;;;;8.69;5.61;;;;;;;;;;361783;147;865720;-63
2021/07/17 08:53:36;;;;;;;11.07;6.51;;;;;;;;;;362150;144;859764;-64
2021/07/17 08:54:39;;;;;;;7.84;5.59;;;;;;;;;;363411;145;857949;-64
2021/07/17 08:55:41;;;;;;;9.43;5.75;;;;;;;;;;363731;145;857589;-63
2021/07/17 08:56:44;;;;;;;8.57;5.81;;;;;;;;;;363751;147;858737;-63
2021/07/17 08:57:45;;;;;;;7.70;6.13;;;;;;;;;;362271;145;857638;-63
2021/07/17 08:58:48;;;;;;;7.66;5.58;;;;;;;;;;363584;144;858692;-63
2021/07/17 08:59:51;;;;;;;9.68;5.69;;;;;;;;;;362461;144;857431;-62
2021/07/17 09:00:54;;;;;;;10.66;6.14;;;;;;;;;;362253;144;857375;-62
2021/07/17 09:01:56;;;;;;;11.33;6.67;;;;;;;;;;362788;144;857902;-63
2021/07/17 09:02:59;;;;;;;9.07;5.90;;;;;;;;;;364332;144;865883;-61
2021/07/17 09:04:03;;;;;;;16.39;5.84;;;;;;;;;;363053;145;857565;-62
2021/07/17 09:05:06;;;;;;;9.39;6.24;;;;;;;;;;361125;145;857477;-61
2021/07/17 09:06:08;;;;;;;10.86;6.07;;;;;;;;;;366145;145;860547;-62
2021/07/17 09:07:09;;;;;;;11.41;6.24;;;;;;;;;;370825;145;858018;-62
2021/07/17 09:08:11;;;;;;;8.60;6.27;;;;;;;;;;367645;145;857469;-61
2021/07/17 09:09:15;;;;;;;8.23;6.07;;;;;;;;;;362658;145;857361;-63
2021/07/17 09:10:33;;;;;;;7.45;5.59;;;;;;;;;;358720;147;857516;-64
2021/07/17 09:11:38;;;;;;;7.46;5.88;;;;;;;;;;360021;147;858053;-62
2021/07/17 09:12:40;;;;;;;8.31;6.44;;;;;;;;;;362891;145;859190;-63
2021/07/17 09:13:41;;;;;;;10.21;7.74;;;;;;;;;;365867;147;857256;-63
2021/07/17 09:14:45;;;;;;;9.13;7.44;;;;;;;;;;365723;146;859121;-63
2021/07/17 09:15:53;;;;;;;9.52;7.11;;;;;;;;;;362073;145;858258;-62
2021/07/17 09:17:00;;;;;;;12.23;6.01;;;;;;;;;;363163;147;857371;-62
2021/07/17 09:18:02;;;;;;;9.57;6.57;;;;;;;;;;365317;147;865593;-62
2021/07/17 09:19:04;;;;;;;7.33;6.06;;;;;;;;;;365588;145;857504;-64
2021/07/17 09:20:06;;;;;;;9.43;6.53;;;;;;;;;;362780;145;858849;-63
2021/07/17 09:21:09;;;;;;;8.03;5.55;;;;;;;;;;359247;150;858032;-63
2021/07/17 09:22:11;;;;;;;7.63;5.81;;;;;;;;;;359992;146;860389;-63
2021/07/17 09:23:12;;;;;;;9.35;7.02;;;;;;;;;;363554;145;857481;-63
2021/07/17 09:24:16;;;;;;;8.34;5.99;;;;;;;;;;365037;144;860195;-65
2021/07/17 09:25:18;;;;;;;10.34;6.18;;;;;;;;;;362302;145;857498;-64
2021/07/17 09:26:24;;;;;;;7.53;6.15;;;;;;;;;;360752;145;858467;-64
2021/07/17 09:27:26;;;;;;;6.89;6.03;;;;;;;;;;361709;145;857392;-64
2021/07/17 09:28:28;;;;;;;7.94;6.01;;;;;;;;;;364457;144;859253;-64
2021/07/17 09:29:35;;;;;;;8.87;6.62;;;;;;;;;;362355;144;864943;-65
2021/07/17 09:30:38;;;;;;;8.17;6.17;;;;;;;;;;364446;145;859573;-65
2021/07/17 09:31:54;;;;;;;12.48;6.36;;;;;;;;;;363532;144;859274;-64
2021/07/17 09:32:57;;;;;;;7.01;6.11;;;;;;;;;;362401;145;859150;-65
2021/07/17 09:34:09;;;;;;;7.91;6.17;;;;;;;;;;361496;144;857466;-65
2021/07/17 09:35:12;;;;;;;9.42;5.94;;;;;;;;;;362177;145;865924;-65
2021/07/17 09:36:15;;;;;;;7.56;6.24;;;;;;;;;;363212;145;859217;-65
2021/07/17 09:37:21;;;;;;;9.31;5.95;;;;;;;;;;361371;145;857439;-65
2021/07/17 09:38:22;;;;;;;8.50;6.39;;;;;;;;;;364862;144;859143;-64
2021/07/17 09:39:32;;;;;;;9.24;6.47;;;;;;;;;;362181;144;857447;-65
2021/07/17 09:40:52;;;;;;;8.44;5.97;;;;;;;;;;362870;144;857523;-66
2021/07/17 09:41:54;;;;;;;8.31;5.72;;;;;;;;;;361083;144;859360;-65
2021/07/17 09:42:56;;;;;;;14.24;6.07;;;;;;;;;;361694;145;858335;-64
2021/07/17 09:43:59;;;;;;;9.12;5.69;;;;;;;;;;361923;145;857933;-65
2021/07/17 09:45:01;;;;;;;7.38;5.89;;;;;;;;;;360672;144;858025;-65
2021/07/17 09:46:04;;;;;;;11.30;5.81;;;;;;;;;;363340;144;857674;-64
2021/07/17 09:47:16;;;;;;;7.07;6.14;;;;;;;;;;361486;144;865042;-64
2021/07/17 09:48:22;;;;;;;8.39;5.89;;;;;;;;;;357502;146;857397;-64
2021/07/17 09:49:25;;;;;;;9.88;5.38;;;;;;;;;;361523;148;858600;-65
2021/07/17 09:50:29;;;;;;;9.14;6.11;;;;;;;;;;358397;145;858470;-65
2021/07/17 09:51:31;;;;;;;9.11;5.53;;;;;;;;;;360295;146;857495;-65
2021/07/17 09:52:34;;;;;;;7.30;5.93;;;;;;;;;;362858;148;859689;-67
2021/07/17 09:53:41;;;;;;;10.63;6.63;;;;;;;;;;357735;146;857489;-67
2021/07/17 09:55:03;;;;;;;9.21;5.91;;;;;;;;;;357521;147;857348;-65
2021/07/17 09:56:12;;;;;;;9.63;5.91;;;;;;;;;;359418;148;857987;-65
2021/07/17 09:57:14;;;;;;;6.63;5.61;;;;;;;;;;360069;145;857651;-65
2021/07/17 09:58:15;;;;;;;7.38;5.65;;;;;;;;;;359387;146;859053;-65
2021/07/17 09:59:17;;;;;;;7.87;6.07;;;;;;;;;;357771;148;857484;-65
2021/07/17 10:00:19;;;;;;;7.30;5.97;;;;;;;;;;352371;148;857564;-65
2021/07/17 10:01:23;;;;;;;9.19;5.53;;;;;;;;;;354867;149;859276;-63
2021/07/17 10:02:26;;;;;;;7.99;6.22;;;;;;;;;;358194;148;857409;-66
2021/07/17 10:03:30;;;;;;;8.59;6.08;;;;;;;;;;358871;148;859674;-62
2021/07/17 10:04:31;;;;;;;10.24;5.94;;;;;;;;;;358905;145;859226;-64
2021/07/17 10:05:37;;;;;;;6.53;5.64;;;;;;;;;;355528;149;859084;-64
2021/07/17 10:06:45;;;;;;;9.96;5.82;;;;;;;;;;355400;150;858596;-64
2021/07/17 10:07:47;;;;;;;8.08;5.86;;;;;;;;;;359485;146;857272;-63
2021/07/17 10:08:49;;;;;;;7.94;5.90;;;;;;;;;;360229;146;857469;-64
2021/07/17 10:09:50;;;;;;;8.79;5.36;;;;;;;;;;360793;148;865608;-65
2021/07/17 10:10:54;;;;;;;8.79;5.59;;;;;;;;;;359050;146;859462;-65
2021/07/17 10:12:00;;;;;;;8.19;5.34;;;;;;;;;;359854;146;860866;-63
2021/07/17 10:13:02;;;;;;;10.74;5.77;;;;;;;;;;359592;148;857480;-65
2021/07/17 10:14:16;;;;;;;7.94;6.28;;;;;;;;;;360008;148;859035;-64
2021/07/17 10:15:18;;;;;;;10.88;5.89;;;;;;;;;;358350;146;858500;-66
2021/07/17 10:16:20;;;;;;;14.90;10.30;;;;;;;;;;358204;146;858022;-64
2021/07/17 10:17:22;;;;;;;19.97;16.43;;;;;;;;;;360329;148;857412;-63
2021/07/17 10:18:23;;;;;;;9.92;7.02;;;;;;;;;;354071;148;857493;-64
2021/07/17 10:19:26;;;;;;;8.29;5.96;;;;;;;;;;354646;149;859666;-62
2021/07/17 10:20:27;;;;;;;9.97;6.72;;;;;;;;;;358289;148;860653;-65
2021/07/17 10:21:29;;;;;;;8.36;5.51;;;;;;;;;;357372;145;858472;-61
2021/07/17 10:22:31;;;;;;;8.34;6.21;;;;;;;;;;360337;145;859106;-64
2021/07/17 10:23:32;;;;;;;8.06;5.79;;;;;;;;;;359785;145;857780;-64
2021/07/17 10:24:34;;;;;;;7.01;5.79;;;;;;;;;;357327;148;857384;-67
2021/07/17 10:25:35;;;;;;;7.08;5.65;;;;;;;;;;359240;147;857491;-65
2021/07/17 10:26:37;;;;;;;5.95;5.37;;;;;;;;;;357770;145;857530;-65
2021/07/17 10:27:39;;;;;;;8.05;5.51;;;;;;;;;;361155;148;864848;-64
2021/07/17 10:28:40;;;;;;;9.40;5.59;;;;;;;;;;359424;145;865229;-66
2021/07/17 10:29:42;;;;;;;8.73;5.66;;;;;;;;;;359997;146;857435;-63
2021/07/17 10:30:44;;;;;;;11.19;5.59;;;;;;;;;;360405;148;857517;-63
2021/07/17 10:31:46;;;;;;;11.81;6.05;;;;;;;;;;361030;147;857544;-63
2021/07/17 10:32:48;;;;;;;13.55;6.64;;;;;;;;;;360541;146;857516;-62
2021/07/17 10:33:49;;;;;;;7.61;5.54;;;;;;;;;;358238;148;857494;-64
2021/07/17 10:34:51;;;;;;;6.97;5.36;;;;;;;;;;357919;148;857356;-64
2021/07/17 10:35:52;;;;;;;9.37;5.38;;;;;;;;;;358886;145;858293;-62
2021/07/17 10:36:56;;;;;;;8.49;5.80;;;;;;;;;;358828;146;858333;-62
2021/07/17 10:37:59;;;;;;;12.13;6.01;;;;;;;;;;357574;148;865273;-62
2021/07/17 10:39:03;;;;;;;7.21;6.05;;;;;;;;;;359186;145;859380;-63
2021/07/17 10:40:08;;;;;;;7.87;5.54;;;;;;;;;;359411;146;858195;-63
2021/07/17 10:41:12;;;;;;;10.34;5.69;;;;;;;;;;360464;148;857525;-64
2021/07/17 10:42:18;;;;;;;7.99;5.88;;;;;;;;;;358295;145;858867;-62
2021/07/17 10:43:20;;;;;;;7.46;5.38;;;;;;;;;;358250;146;858043;-63
2021/07/17 10:44:39;;;;;;;6.24;5.38;;;;;;;;;;358330;148;857356;-62
2021/07/17 10:45:45;;;;;;;9.33;5.68;;;;;;;;;;358331;145;858266;-62
2021/07/17 10:46:46;;;;;;;9.01;5.58;;;;;;;;;;358202;146;857327;-61
2021/07/17 10:47:50;;;;;;;6.15;5.44;;;;;;;;;;358721;148;858584;-68
2021/07/17 10:48:53;;;;;;;6.94;5.83;;;;;;;;;;358466;148;857575;-62
2021/07/17 10:49:55;;;;;;;5.74;4.99;;;;;;;;;;359344;145;858053;-61
2021/07/17 10:50:58;;;;;;;8.79;5.13;;;;;;;;;;358646;146;857446;-61
2021/07/17 10:51:59;;;;;;;9.97;5.11;;;;;;;;;;359446;148;858061;-63
2021/07/17 10:53:01;;;;;;;8.12;4.98;;;;;;;;;;357201;148;863666;-61
2021/07/17 10:54:10;;;;;;;7.33;5.04;;;;;;;;;;359892;146;857661;-61
2021/07/17 10:55:32;;;;;;;8.04;4.91;;;;;;;;;;357832;148;858910;-61
2021/07/17 10:56:36;;;;;;;6.33;5.17;;;;;;;;;;359489;148;857475;-63
2021/07/17 10:57:38;;;;;;;7.72;5.09;;;;;;;;;;358482;146;857861;-62
2021/07/17 10:58:39;;;;;;;16.96;5.39;;;;;;;;;;362720;148;857520;-62
2021/07/17 10:59:41;;;;;;;9.20;5.41;;;;;;;;;;360186;148;857600;-62
2021/07/17 11:00:46;;;;;;;8.05;5.41;;;;;;;;;;359372;146;857513;-59
2021/07/17 11:02:02;;;;;;;11.25;5.60;;;;;;;;;;352501;148;857426;-62
2021/07/17 11:03:25;;;;;;;9.30;5.35;;;;;;;;;;354777;148;859028;-63
2021/07/17 11:04:32;;;;;;;7.75;5.14;;;;;;;;;;359064;146;859462;-62
2021/07/17 11:05:34;;;;;;;8.76;5.49;;;;;;;;;;360977;148;857477;-63
2021/07/17 11:06:36;;;;;;;9.14;5.41;;;;;;;;;;362339;145;857379;-62
2021/07/17 11:07:38;;;;;;;8.00;5.54;;;;;;;;;;357989;145;857524;-61
2021/07/17 11:08:39;;;;;;;9.80;5.65;;;;;;;;;;358580;146;857659;-62
2021/07/17 11:09:50;;;;;;;5.71;5.12;;;;;;;;;;359962;147;860222;-62
2021/07/17 11:10:52;;;;;;;9.88;5.90;;;;;;;;;;358731;145;857579;-62
2021/07/17 11:12:12;;;;;;;6.42;5.79;;;;;;;;;;358354;146;858618;-61
2021/07/17 11:13:14;;;;;;;7.29;5.22;;;;;;;;;;358851;148;859156;-62
2021/07/17 11:14:20;;;;;;;7.26;5.17;;;;;;;;;;356320;148;858555;-63
2021/07/17 11:15:24;;;;;;;7.92;5.89;;;;;;;;;;361565;146;866114;-63
2021/07/17 11:16:39;;;;;;;6.56;5.28;;;;;;;;;;358529;148;857971;-60
2021/07/17 11:17:41;;;;;;;9.13;5.55;;;;;;;;;;361031;145;859158;-63
2021/07/17 11:18:43;;;;;;;7.89;5.34;;;;;;;;;;359823;145;857908;-63
2021/07/17 11:19:45;;;;;;;7.79;5.64;;;;;;;;;;359084;148;859133;-63
2021/07/17 11:20:48;;;;;;;12.23;5.25;;;;;;;;;;358519;148;858631;-63
2021/07/17 11:21:49;;;;;;;9.74;5.93;;;;;;;;;;361615;145;857496;-63
2021/07/17 11:23:02;;;;;;;7.82;5.04;;;;;;;;;;359060;147;857480;-63
2021/07/17 11:24:04;;;;;;;6.86;5.12;;;;;;;;;;358859;148;857751;-63
2021/07/17 11:25:06;;;;;;;7.11;5.60;;;;;;;;;;358677;146;859624;-63
2021/07/17 11:26:10;;;;;;;5.87;5.01;;;;;;;;;;359378;146;857586;-63
2021/07/17 11:27:13;;;;;;;7.07;5.33;;;;;;;;;;362411;148;859197;-62
2021/07/17 11:28:17;;;;;;;9.23;5.67;;;;;;;;;;362663;145;856436;-63
2021/07/17 11:29:18;;;;;;;6.35;5.61;;;;;;;;;;357765;146;856457;-63
2021/07/17 11:30:21;;;;;;;8.41;5.41;;;;;;;;;;360869;147;856447;-65
2021/07/17 11:31:33;;;;;;;6.56;5.25;;;;;;;;;;360114;145;856419;-63
2021/07/17 11:32:35;;;;;;;9.95;5.37;;;;;;;;;;358981;146;863631;-64
2021/07/17 11:33:37;;;;;;;8.46;5.46;;;;;;;;;;358152;148;856451;-63
2021/07/17 11:34:40;;;;;;;9.81;5.60;;;;;;;;;;359459;145;856442;-62
2021/07/17 11:35:44;;;;;;;7.23;4.91;;;;;;;;;;358196;146;856651;-62
2021/07/17 11:36:53;;;;;;;7.65;4.92;;;;;;;;;;357382;148;856509;-58
2021/07/17 11:37:55;;;;;;;7.04;4.53;;;;;;;;;;358889;148;857066;-61
2021/07/17 11:38:57;;;;;;;5.74;4.96;;;;;;;;;;359058;145;856502;-61
2021/07/17 11:39:59;;;;;;;7.22;5.16;;;;;;;;;;362044;146;856496;-61
2021/07/17 11:41:00;;;;;;;5.45;4.94;;;;;;;;;;356020;149;857127;-61
2021/07/17 11:42:03;;;;;;;8.28;5.32;;;;;;;;;;357942;148;856705;-61
2021/07/17 11:43:05;;;;;;;7.11;5.37;;;;;;;;;;360160;146;856627;-62
2021/07/17 11:44:07;;;;;;;9.81;5.16;;;;;;;;;;361239;148;856820;-62
2021/07/17 11:45:09;;;;;;;7.93;5.73;;;;;;;;;;362018;146;857174;-62
2021/07/17 11:47:57;;;;;;;6.84;5.22;;;;;;;;;;373864;142;882230;-61
2021/07/17 11:49:03;;;;;;;7.61;4.93;;;;;;;;;;364326;144;859048;-61
2021/07/17 11:50:05;;;;;;;10.29;4.87;;;;;;;;;;362254;145;858459;-62
2021/07/17 11:51:07;;;;;;;8.67;5.00;;;;;;;;;;361489;147;857569;-62
2021/07/17 11:52:13;;;;;;;7.54;5.47;;;;;;;;;;363537;144;856875;-62
2021/07/17 11:53:15;;;;;;;7.75;5.39;;;;;;;;;;360893;144;860055;-60
2021/07/17 11:54:25;;;;;;;8.60;4.91;;;;;;;;;;364810;144;859114;-64
2021/07/17 11:55:26;;;;;;;7.26;5.09;;;;;;;;;;362136;147;859153;-61
2021/07/17 11:56:28;;;;;;;7.69;5.38;;;;;;;;;;362917;144;857682;-62
2021/07/17 11:57:31;;;;;;;12.61;5.39;;;;;;;;;;364102;144;857539;-61
2021/07/17 11:58:32;;;;;;;5.71;5.19;;;;;;;;;;362499;145;857551;-61
2021/07/17 11:59:35;;;;;;;8.28;5.57;;;;;;;;;;363452;145;857697;-62
2021/07/17 12:00:38;;;;;;;8.39;4.84;;;;;;;;;;361668;145;857431;-64
2021/07/17 12:01:59;;;;;;;8.47;6.15;;;;;;;;;;364910;147;859222;-62
2021/07/17 12:03:00;;;;;;;8.91;5.39;;;;;;;;;;363798;146;864791;-62
2021/07/17 12:04:02;;;;;;;5.71;4.59;;;;;;;;;;362577;145;860105;-61
2021/07/17 12:05:09;;;;;;;5.60;4.77;;;;;;;;;;362444;145;857632;-61
2021/07/17 12:06:11;;;;;;;6.40;5.29;;;;;;;;;;360973;144;864837;-61
2021/07/17 12:07:14;;;;;;;7.54;4.66;;;;;;;;;;360467;145;857401;-61
2021/07/17 12:08:17;;;;;;;6.19;4.83;;;;;;;;;;363232;145;860096;-61